AirNav   Jet Aviation Boston
 
 1070 users online  

T80 Bishop's Landing Airport
Celina, Texas, USA

GOING TO CELINA?


FAA INFORMATION EFFECTIVE 21 JUNE 2018

Location

FAA Identifier: T80
Lat/Long: 33-22-35.4750N / 096-43-44.1700W
33-22.591250N / 096-43.736167W
33.3765208 / -96.7289361
(estimated)
Elevation: 750 ft. / 229 m (estimated)
Variation: 06E (1995)
From city: 5 miles NE of CELINA, TX
Time zone: UTC -5 (UTC -6 during Standard Time)
Zip code: 75009

Airport Operations

Airport use: Open to the public
Activation date: 08/2000
Control tower: no
ARTCC: FORT WORTH CENTER
FSS: FORT WORTH FLIGHT SERVICE STATION
NOTAMs facility: FTW (NOTAM-D service available)
Attendance: UNATNDD
Wind indicator: yes
Segmented circle: no

Airport Communications

CTAF: 122.9
WX ASOS at TKI (14 nm SE): 119.925 (972-548-8525)

Nearby radio navigation aids

VOR radial/distance  VOR name  Freq  Var
BYPr243/26.6BONHAM VORTAC114.6006E
CVEr011/30.5COWBOY VOR/DME116.2006E
TTTr021/34.2MAVERICK VOR/DME113.1006E
FUZr032/37.0RANGER VORTAC115.7006E
URHr201/38.0TEXOMA VOR/DME114.3005E

 
NDB name  Hdg/Dist  Freq  Var  ID
MELISA311/9.842103EVLY ...- .-.. -.--
DENISON180/27.234106EDNI -.. -. ..
CADDO MILLS304/31.531606EMII -- .. ..
MESQUITE341/35.524803EPQF .--. --.- ..-.

Airport Services

Runway Information

Runway 17/35

Dimensions: 1580 x 80 ft. / 482 x 24 m
Surface: turf, in good condition
RY SOFT AFT RAIN. CALL AMGR FOR FLD CONDS.
RUNWAY 17  RUNWAY 35
Latitude: 33-22.721500N33-22.461000N
Longitude: 096-43.735667W096-43.736667W
Elevation: 749.0 ft.733.0 ft.
Traffic pattern: leftright
Runway heading: 174 magnetic, 180 true354 magnetic, 360 true
Obstructions: 34 ft. pole, 10 ft. from runway, 67 ft. left and right of centerline70 ft. trees, 60 ft. left of centerline

Airport Ownership and Management from official FAA records

Ownership: Privately-owned
Owner: BOBBY BISHOP
8955 CR 135
CELINA, TX 75009
Phone (214) 280-4408
Manager: BOBBY BISHOP
8955 CR 135
CELINA, TX 75009
Phone (214) 280-4408

Airport Operational Statistics

Aircraft based on the field: 2
Single engine airplanes: 2
    
Aircraft operations: avg 50/month *
67% local general aviation
33% transient general aviation
* for 12-month period ending 15 February 2015

Additional Remarks

FOR CD CTC REGIONAL APCH AT 972-615-2799.

Instrument Procedures

There are no published instrument procedures at T80.

Some nearby airports with instrument procedures:

KTKI - McKinney National Airport (14 nm SE)
KSWI - Sherman Municipal Airport (16 nm NE)
KGYI - North Texas Regional Airport/Perrin Field (20 nm N)
KADS - Addison Airport (25 nm S)
KDTO - Denton Enterprise Airport (26 nm SW)
 
Loc | Ops | Rwys | IFR | FBO | Links
Com | Nav | Svcs | Stats | Notes


 
Area around T80 (Bishop's Landing Airport)
 
Road maps at: MapQuest Bing Google
 
Aerial photo
No photo
 
Sectional chart

 
Airport distance calculator
Flying to Bishop's Landing Airport? Find the distance to fly.

From to T80

Sunrise and sunset
Times for 15-Jul-2018
 Local
(UTC-5)
 Zulu
(UTC)
Morning civil twilight06:0111:01
Sunrise06:2911:29
Sunset20:3601:36
Evening civil twilight21:0502:05

Current date and time
Zulu (UTC)  15-Jul-2018 21:23:05
Local (UTC-5)  15-Jul-2018 16:23:05
 
METAR
KTKI 
14nm SE 
152053Z 15013KT 10SM CLR 37/19 A2995 RMK AO2 SLP132 T03670194 58020 $
KGYI 
20nm N 
152055Z AUTO 14007KT 10SM BKN075 OVC095 37/19 A2996 RMK AO2 T03660189
KADS 
25nm S 
152053Z 12008G17KT 10SM SCT035 36/19 A2995
KDTO 
26nm SW 
152053Z 11008G15KT 10SM CLR 37/19 A2993 RMK AO2 SLP122 T03720194 58025
TAF
KDFW 
32nm SW 
151727Z 1518/1624 19010KT P6SM SCT090
KDAL 
32nm S 
151727Z 1518/1618 18010KT P6SM SCT090
KAFW 
38nm SW 
151727Z 1518/1618 19010KT P6SM SCT090
NOTAMs
Click for the latest NOTAMs
NOTAMs are issued by the DoD/FAA and will open in a separate window not controlled by AirNav.

 

 
 

Would you like to see your business listed on this page?

 If your business provides an interesting product or service to pilots, flight crews, aircraft, or users of the Bishop's Landing Airport, you should consider listing it here.  To start the listing process, click on the button below
 
Add a business
 

Other Pages about Bishop's Landing Airport

Update a link
 
Copyright © AirNav, LLC. All rights reserved. Privacy Policy  Contact